sensor_id;sensor_type;location;lat;lon;timestamp;pressure;altitude;pressure_sealevel;temperature;humidity
9969;BME280;5025;48.890;9.278;2023-04-29T00:00:22;98419.56;;;13.07;100.00
9969;BME280;5025;48.890;9.278;2023-04-29T00:02:48;98427.44;;;13.09;100.00
9969;BME280;5025;48.890;9.278;2023-04-29T00:05:13;98413.31;;;13.07;100.00
9969;BME280;5025;48.890;9.278;2023-04-29T00:07:38;98414.41;;;13.06;100.00
9969;BME280;5025;48.890;9.278;2023-04-29T00:10:04;98422.53;;;13.06;100.00
9969;BME280;5025;48.890;9.278;2023-04-29T00:12:30;98421.94;;;13.04;100.00
9969;BME280;5025;48.890;9.278;2023-04-29T00:14:56;98424.09;;;13.02;100.00
9969;BME280;5025;48.890;9.278;2023-04-29T00:17:21;98424.09;;;13.02;100.00
9969;BME280;5025;48.890;9.278;2023-04-29T00:19:47;98424.34;;;13.00;100.00
9969;BME280;5025;48.890;9.278;2023-04-29T00:22:12;98417.03;;;13.01;100.00
9969;BME280;5025;48.890;9.278;2023-04-29T00:24:38;98409.72;;;13.01;100.00
9969;BME280;5025;48.890;9.278;2023-04-29T00:27:03;98416.53;;;13.04;100.00
9969;BME280;5025;48.890;9.278;2023-04-29T00:29:30;98423.34;;;13.06;100.00
9969;BME280;5025;48.890;9.278;2023-04-29T00:31:55;98421.19;;;13.08;100.00
9969;BME280;5025;48.890;9.278;2023-04-29T00:34:20;98422.81;;;13.09;100.00
9969;BME280;5025;48.890;9.278;2023-04-29T00:36:46;98421.19;;;13.08;100.00
9969;BME280;5025;48.890;9.278;2023-04-29T00:39:11;98420.13;;;13.09;100.00
9969;BME280;5025;48.890;9.278;2023-04-29T00:41:37;98424.16;;;13.07;100.00
9969;BME280;5025;48.890;9.278;2023-04-29T00:44:03;98427.06;;;13.00;100.00
9969;BME280;5025;48.890;9.278;2023-04-29T00:46:28;98413.75;;;12.99;100.00
9969;BME280;5025;48.890;9.278;2023-04-29T00:48:54;98430.31;;;13.02;100.00
9969;BME280;5025;48.890;9.278;2023-04-29T00:51:19;98430.66;;;13.06;100.00
9969;BME280;5025;48.890;9.278;2023-04-29T00:53:44;98431.22;;;13.08;100.00
9969;BME280;5025;48.890;9.278;2023-04-29T00:56:10;98441.25;;;13.07;100.00
9969;BME280;5025;48.890;9.278;2023-04-29T00:58:35;98429.81;;;13.05;100.00
9969;BME280;5025;48.890;9.278;2023-04-29T01:01:03;98438.22;;;13.04;100.00
9969;BME280;5025;48.890;9.278;2023-04-29T01:03:30;98437.66;;;13.02;100.00
9969;BME280;5025;48.890;9.278;2023-04-29T01:06:10;98441.41;;;13.01;100.00
9969;BME280;5025;48.890;9.278;2023-04-29T01:08:43;98435.69;;;12.97;100.00
9969;BME280;5025;48.890;9.278;2023-04-29T01:11:15;98448.09;;;12.93;100.00
9969;BME280;5025;48.890;9.278;2023-04-29T01:13:49;98449.69;;;12.89;100.00
9969;BME280;5025;48.890;9.278;2023-04-29T01:16:24;98453.72;;;12.86;100.00
9969;BME280;5025;48.890;9.278;2023-04-29T01:18:54;98452.03;;;12.80;100.00
9969;BME280;5025;48.890;9.278;2023-04-29T01:21:23;98456.28;;;12.76;100.00
9969;BME280;5025;48.890;9.278;2023-04-29T01:23:49;98457.88;;;12.72;100.00
9969;BME280;5025;48.890;9.278;2023-04-29T01:26:21;98455.34;;;12.65;100.00
9969;BME280;5025;48.890;9.278;2023-04-29T01:31:44;98452.25;;;12.57;100.00
9969;BME280;5025;48.890;9.278;2023-04-29T01:34:17;98450.84;;;12.54;100.00
9969;BME280;5025;48.890;9.278;2023-04-29T01:39:20;98451.28;;;12.46;100.00
9969;BME280;5025;48.890;9.278;2023-04-29T01:42:06;98461.28;;;12.45;100.00
9969;BME280;5025;48.890;9.278;2023-04-29T01:44:34;98452.59;;;12.43;100.00
9969;BME280;5025;48.890;9.278;2023-04-29T01:47:01;98446.88;;;12.40;100.00
9969;BME280;5025;48.890;9.278;2023-04-29T01:49:27;98455.56;;;12.42;100.00
9969;BME280;5025;48.890;9.278;2023-04-29T01:51:53;98453.41;;;12.44;100.00
9969;BME280;5025;48.890;9.278;2023-04-29T01:54:19;98448.59;;;12.46;100.00
9969;BME280;5025;48.890;9.278;2023-04-29T01:56:45;98453.50;;;12.49;100.00
9969;BME280;5025;48.890;9.278;2023-04-29T01:59:10;98444.28;;;12.50;100.00
9969;BME280;5025;48.890;9.278;2023-04-29T02:01:36;98450.06;;;12.53;100.00
9969;BME280;5025;48.890;9.278;2023-04-29T02:04:01;98443.28;;;12.56;100.00
9969;BME280;5025;48.890;9.278;2023-04-29T02:06:27;98453.06;;;12.57;100.00
9969;BME280;5025;48.890;9.278;2023-04-29T02:08:52;98445.44;;;12.54;100.00
9969;BME280;5025;48.890;9.278;2023-04-29T02:11:17;98447.25;;;12.48;100.00
9969;BME280;5025;48.890;9.278;2023-04-29T02:13:43;98449.91;;;12.43;100.00
9969;BME280;5025;48.890;9.278;2023-04-29T02:16:12;98454.50;;;12.43;100.00
9969;BME280;5025;48.890;9.278;2023-04-29T02:18:38;98457.72;;;12.40;100.00
9969;BME280;5025;48.890;9.278;2023-04-29T02:21:04;98450.88;;;12.37;100.00
9969;BME280;5025;48.890;9.278;2023-04-29T02:23:30;98449.19;;;12.31;100.00
9969;BME280;5025;48.890;9.278;2023-04-29T02:25:55;98454.28;;;12.27;100.00
9969;BME280;5025;48.890;9.278;2023-04-29T02:28:21;98453.13;;;12.23;100.00
9969;BME280;5025;48.890;9.278;2023-04-29T02:30:48;98450.34;;;12.18;100.00
9969;BME280;5025;48.890;9.278;2023-04-29T02:33:13;98450.00;;;12.14;100.00
9969;BME280;5025;48.890;9.278;2023-04-29T02:35:39;98452.16;;;12.12;100.00
9969;BME280;5025;48.890;9.278;2023-04-29T02:38:04;98449.38;;;12.07;100.00
9969;BME280;5025;48.890;9.278;2023-04-29T02:40:29;98453.63;;;12.03;100.00
9969;BME280;5025;48.890;9.278;2023-04-29T02:42:55;98451.16;;;12.01;100.00
9969;BME280;5025;48.890;9.278;2023-04-29T02:45:20;98459.22;;;11.96;100.00
9969;BME280;5025;48.890;9.278;2023-04-29T02:47:46;98461.22;;;11.89;100.00
9969;BME280;5025;48.890;9.278;2023-04-29T02:50:11;98464.97;;;11.88;100.00
9969;BME280;5025;48.890;9.278;2023-04-29T02:52:37;98456.53;;;11.84;100.00
9969;BME280;5025;48.890;9.278;2023-04-29T02:55:02;98454.56;;;11.80;100.00
9969;BME280;5025;48.890;9.278;2023-04-29T02:57:28;98461.63;;;11.81;100.00
9969;BME280;5025;48.890;9.278;2023-04-29T02:59:54;98461.56;;;11.76;100.00
9969;BME280;5025;48.890;9.278;2023-04-29T03:02:19;98462.59;;;11.75;100.00
9969;BME280;5025;48.890;9.278;2023-04-29T03:04:44;98466.38;;;11.74;100.00
9969;BME280;5025;48.890;9.278;2023-04-29T03:07:10;98463.09;;;11.72;100.00
9969;BME280;5025;48.890;9.278;2023-04-29T03:09:36;98461.94;;;11.68;100.00
9969;BME280;5025;48.890;9.278;2023-04-29T03:12:01;98460.81;;;11.63;100.00
9969;BME280;5025;48.890;9.278;2023-04-29T03:14:27;98471.88;;;11.62;100.00
9969;BME280;5025;48.890;9.278;2023-04-29T03:16:52;98466.69;;;11.60;100.00
9969;BME280;5025;48.890;9.278;2023-04-29T03:19:17;98462.81;;;11.56;100.00
9969;BME280;5025;48.890;9.278;2023-04-29T03:21:43;98467.31;;;11.51;100.00
9969;BME280;5025;48.890;9.278;2023-04-29T03:24:09;98468.53;;;11.43;100.00
9969;BME280;5025;48.890;9.278;2023-04-29T03:26:34;98472.88;;;11.44;100.00
9969;BME280;5025;48.890;9.278;2023-04-29T03:29:00;98464.19;;;11.42;100.00
9969;BME280;5025;48.890;9.278;2023-04-29T03:31:25;98462.53;;;11.41;100.00
9969;BME280;5025;48.890;9.278;2023-04-29T03:33:51;98459.03;;;11.40;100.00
9969;BME280;5025;48.890;9.278;2023-04-29T03:36:17;98465.16;;;11.36;100.00
9969;BME280;5025;48.890;9.278;2023-04-29T03:38:43;98458.09;;;11.35;99.80
9969;BME280;5025;48.890;9.278;2023-04-29T03:41:08;98464.00;;;11.32;99.89
9969;BME280;5025;48.890;9.278;2023-04-29T03:43:33;98461.19;;;11.26;99.92
9969;BME280;5025;48.890;9.278;2023-04-29T03:45:59;98464.38;;;11.23;99.76
9969;BME280;5025;48.890;9.278;2023-04-29T03:48:24;98455.91;;;11.20;99.50
9969;BME280;5025;48.890;9.278;2023-04-29T03:50:49;98462.41;;;11.19;99.67
9969;BME280;5025;48.890;9.278;2023-04-29T03:53:15;98463.16;;;11.02;99.09
9969;BME280;5025;48.890;9.278;2023-04-29T03:55:41;98458.00;;;11.01;99.18
9969;BME280;5025;48.890;9.278;2023-04-29T03:58:06;98474.19;;;11.01;99.13
9969;BME280;5025;48.890;9.278;2023-04-29T04:00:32;98473.38;;;11.00;99.14
9969;BME280;5025;48.890;9.278;2023-04-29T04:02:58;98473.63;;;10.99;98.94
9969;BME280;5025;48.890;9.278;2023-04-29T04:05:23;98468.22;;;10.99;98.81
9969;BME280;5025;48.890;9.278;2023-04-29T04:07:50;98470.94;;;10.99;98.64
9969;BME280;5025;48.890;9.278;2023-04-29T04:10:16;98477.38;;;10.98;98.48
9969;BME280;5025;48.890;9.278;2023-04-29T04:12:41;98478.44;;;10.97;98.27
9969;BME280;5025;48.890;9.278;2023-04-29T04:15:07;98477.38;;;10.98;98.37
9969;BME280;5025;48.890;9.278;2023-04-29T04:17:32;98475.16;;;10.94;98.32
9969;BME280;5025;48.890;9.278;2023-04-29T04:19:58;98485.97;;;10.94;98.25
9969;BME280;5025;48.890;9.278;2023-04-29T04:22:23;98479.75;;;10.94;98.19
9969;BME280;5025;48.890;9.278;2023-04-29T04:24:48;98488.91;;;10.93;98.06
9969;BME280;5025;48.890;9.278;2023-04-29T04:27:13;98495.25;;;10.87;97.88
9969;BME280;5025;48.890;9.278;2023-04-29T04:29:39;98497.25;;;10.80;97.92
9969;BME280;5025;48.890;9.278;2023-04-29T04:32:04;98505.50;;;10.73;97.97
9969;BME280;5025;48.890;9.278;2023-04-29T04:34:29;98499.75;;;10.69;97.96
9969;BME280;5025;48.890;9.278;2023-04-29T04:36:55;98510.19;;;10.66;98.05
9969;BME280;5025;48.890;9.278;2023-04-29T04:39:20;98508.56;;;10.65;98.18
9969;BME280;5025;48.890;9.278;2023-04-29T04:41:45;98506.91;;;10.64;97.97
9969;BME280;5025;48.890;9.278;2023-04-29T04:44:11;98509.38;;;10.65;97.81
9969;BME280;5025;48.890;9.278;2023-04-29T04:46:36;98515.59;;;10.66;97.45
9969;BME280;5025;48.890;9.278;2023-04-29T04:49:02;98514.44;;;10.62;97.87
9969;BME280;5025;48.890;9.278;2023-04-29T04:51:27;98517.13;;;10.62;97.60
9969;BME280;5025;48.890;9.278;2023-04-29T04:53:53;98527.94;;;10.62;97.77
9969;BME280;5025;48.890;9.278;2023-04-29T04:56:18;98533.91;;;10.64;97.77
9969;BME280;5025;48.890;9.278;2023-04-29T04:58:43;98528.03;;;10.67;97.96
9969;BME280;5025;48.890;9.278;2023-04-29T05:01:09;98535.44;;;10.71;97.63
9969;BME280;5025;48.890;9.278;2023-04-29T05:03:34;98539.56;;;10.74;97.59
9969;BME280;5025;48.890;9.278;2023-04-29T05:05:59;98532.50;;;10.73;97.85
9969;BME280;5025;48.890;9.278;2023-04-29T05:08:25;98538.25;;;10.76;97.95
9969;BME280;5025;48.890;9.278;2023-04-29T05:10:51;98536.63;;;10.75;97.63
9969;BME280;5025;48.890;9.278;2023-04-29T05:13:17;98548.25;;;10.76;97.74
9969;BME280;5025;48.890;9.278;2023-04-29T05:15:43;98549.03;;;10.76;97.62
9969;BME280;5025;48.890;9.278;2023-04-29T05:18:09;98558.00;;;10.77;97.77
9969;BME280;5025;48.890;9.278;2023-04-29T05:20:35;98553.75;;;10.81;98.17
9969;BME280;5025;48.890;9.278;2023-04-29T05:23:01;98559.63;;;10.90;98.22
9969;BME280;5025;48.890;9.278;2023-04-29T05:25:26;98561.03;;;10.92;98.59
9969;BME280;5025;48.890;9.278;2023-04-29T05:27:52;98564.78;;;10.91;98.74
9969;BME280;5025;48.890;9.278;2023-04-29T05:30:17;98568.19;;;10.99;99.06
9969;BME280;5025;48.890;9.278;2023-04-29T05:32:43;98569.94;;;11.05;99.14
9969;BME280;5025;48.890;9.278;2023-04-29T05:35:10;98578.97;;;11.10;99.13
9969;BME280;5025;48.890;9.278;2023-04-29T05:37:35;98576.16;;;11.17;99.11
9969;BME280;5025;48.890;9.278;2023-04-29T05:40:00;98581.56;;;11.17;98.93
9969;BME280;5025;48.890;9.278;2023-04-29T05:42:26;98581.91;;;11.21;99.17
9969;BME280;5025;48.890;9.278;2023-04-29T05:44:51;98590.94;;;11.26;99.38
9969;BME280;5025;48.890;9.278;2023-04-29T05:47:17;98588.13;;;11.21;99.71
9969;BME280;5025;48.890;9.278;2023-04-29T05:49:43;98597.97;;;11.27;100.00
9969;BME280;5025;48.890;9.278;2023-04-29T05:52:08;98594.94;;;11.36;99.99
9969;BME280;5025;48.890;9.278;2023-04-29T05:54:33;98598.22;;;11.38;100.00
9969;BME280;5025;48.890;9.278;2023-04-29T05:56:59;98599.47;;;11.47;100.00
9969;BME280;5025;48.890;9.278;2023-04-29T05:59:29;98602.19;;;11.47;100.00
9969;BME280;5025;48.890;9.278;2023-04-29T06:01:55;98608.06;;;11.44;100.00
9969;BME280;5025;48.890;9.278;2023-04-29T06:04:20;98603.94;;;11.41;100.00
9969;BME280;5025;48.890;9.278;2023-04-29T06:06:46;98606.78;;;11.46;100.00
9969;BME280;5025;48.890;9.278;2023-04-29T06:09:11;98617.84;;;11.45;100.00
9969;BME280;5025;48.890;9.278;2023-04-29T06:11:39;98622.75;;;11.48;100.00
9969;BME280;5025;48.890;9.278;2023-04-29T06:14:04;98628.84;;;11.55;100.00
9969;BME280;5025;48.890;9.278;2023-04-29T06:16:29;98629.06;;;11.65;100.00
9969;BME280;5025;48.890;9.278;2023-04-29T06:18:57;98629.31;;;11.64;100.00
9969;BME280;5025;48.890;9.278;2023-04-29T06:21:22;98638.22;;;11.64;100.00
9969;BME280;5025;48.890;9.278;2023-04-29T06:23:48;98639.97;;;11.71;100.00
9969;BME280;5025;48.890;9.278;2023-04-29T06:26:13;98635.59;;;11.81;100.00
9969;BME280;5025;48.890;9.278;2023-04-29T06:28:39;98649.59;;;11.78;100.00
9969;BME280;5025;48.890;9.278;2023-04-29T06:31:04;98644.66;;;11.75;100.00
9969;BME280;5025;48.890;9.278;2023-04-29T06:33:29;98648.31;;;11.81;100.00
9969;BME280;5025;48.890;9.278;2023-04-29T06:35:55;98646.66;;;11.80;100.00
9969;BME280;5025;48.890;9.278;2023-04-29T06:38:21;98650.19;;;11.80;100.00
9969;BME280;5025;48.890;9.278;2023-04-29T06:40:46;98656.91;;;11.78;100.00
9969;BME280;5025;48.890;9.278;2023-04-29T06:43:12;98655.63;;;11.80;100.00
9969;BME280;5025;48.890;9.278;2023-04-29T06:45:37;98667.59;;;11.84;100.00
9969;BME280;5025;48.890;9.278;2023-04-29T06:48:02;98656.53;;;11.86;100.00
9969;BME280;5025;48.890;9.278;2023-04-29T06:50:28;98661.69;;;11.99;100.00
9969;BME280;5025;48.890;9.278;2023-04-29T06:52:53;98668.63;;;11.95;100.00
9969;BME280;5025;48.890;9.278;2023-04-29T06:55:18;98668.63;;;11.95;100.00
9969;BME280;5025;48.890;9.278;2023-04-29T06:57:44;98669.56;;;12.01;100.00
9969;BME280;5025;48.890;9.278;2023-04-29T07:00:09;98672.13;;;12.08;100.00
9969;BME280;5025;48.890;9.278;2023-04-29T07:02:35;98676.03;;;12.00;100.00
9969;BME280;5025;48.890;9.278;2023-04-29T07:05:03;98676.50;;;11.97;100.00
9969;BME280;5025;48.890;9.278;2023-04-29T07:07:29;98680.97;;;12.03;100.00
9969;BME280;5025;48.890;9.278;2023-04-29T07:09:54;98676.00;;;12.12;100.00
9969;BME280;5025;48.890;9.278;2023-04-29T07:12:20;98678.06;;;12.22;100.00
9969;BME280;5025;48.890;9.278;2023-04-29T07:14:45;98687.53;;;12.36;100.00
9969;BME280;5025;48.890;9.278;2023-04-29T07:17:11;98687.66;;;12.41;100.00
9969;BME280;5025;48.890;9.278;2023-04-29T07:19:36;98693.16;;;12.46;100.00
9969;BME280;5025;48.890;9.278;2023-04-29T07:22:01;98686.31;;;12.44;100.00
9969;BME280;5025;48.890;9.278;2023-04-29T07:24:28;98693.09;;;12.58;100.00
9969;BME280;5025;48.890;9.278;2023-04-29T07:26:53;98692.84;;;12.60;100.00
9969;BME280;5025;48.890;9.278;2023-04-29T07:29:18;98694.31;;;12.50;100.00
9969;BME280;5025;48.890;9.278;2023-04-29T07:31:44;98702.69;;;12.49;99.74
9969;BME280;5025;48.890;9.278;2023-04-29T07:34:10;98704.22;;;12.45;98.79
9969;BME280;5025;48.890;9.278;2023-04-29T07:36:36;98703.34;;;12.56;98.85
9969;BME280;5025;48.890;9.278;2023-04-29T07:39:02;98706.69;;;12.46;97.31
9969;BME280;5025;48.890;9.278;2023-04-29T07:41:27;98712.09;;;12.46;97.56
9969;BME280;5025;48.890;9.278;2023-04-29T07:43:52;98707.34;;;12.36;96.65
9969;BME280;5025;48.890;9.278;2023-04-29T07:46:18;98706.50;;;12.36;95.84
9969;BME280;5025;48.890;9.278;2023-04-29T07:48:43;98714.38;;;12.37;96.24
9969;BME280;5025;48.890;9.278;2023-04-29T07:51:13;98715.53;;;12.42;96.79
9969;BME280;5025;48.890;9.278;2023-04-29T07:53:39;98717.19;;;12.43;96.40
9969;BME280;5025;48.890;9.278;2023-04-29T07:56:07;98711.88;;;12.48;97.32
9969;BME280;5025;48.890;9.278;2023-04-29T07:58:33;98719.25;;;12.52;97.69
9969;BME280;5025;48.890;9.278;2023-04-29T08:01:08;98726.09;;;12.55;97.55
9969;BME280;5025;48.890;9.278;2023-04-29T08:03:34;98730.34;;;12.51;97.42
9969;BME280;5025;48.890;9.278;2023-04-29T08:06:03;98733.53;;;12.48;96.73
9969;BME280;5025;48.890;9.278;2023-04-29T08:08:30;98733.84;;;12.51;96.78
9969;BME280;5025;48.890;9.278;2023-04-29T08:10:55;98736.91;;;12.55;96.93
9969;BME280;5025;48.890;9.278;2023-04-29T08:13:20;98739.38;;;12.57;96.60
9969;BME280;5025;48.890;9.278;2023-04-29T08:15:46;98737.97;;;12.54;96.77
9969;BME280;5025;48.890;9.278;2023-04-29T08:18:11;98735.84;;;12.56;96.84
9969;BME280;5025;48.890;9.278;2023-04-29T08:20:36;98740.28;;;12.62;97.24
9969;BME280;5025;48.890;9.278;2023-04-29T08:23:02;98741.03;;;12.74;96.69
9969;BME280;5025;48.890;9.278;2023-04-29T08:25:28;98745.38;;;12.59;96.18
9969;BME280;5025;48.890;9.278;2023-04-29T08:27:54;98747.53;;;12.57;96.37
9969;BME280;5025;48.890;9.278;2023-04-29T08:30:20;98741.66;;;12.77;96.63
9969;BME280;5025;48.890;9.278;2023-04-29T08:32:45;98743.47;;;12.88;96.45
9969;BME280;5025;48.890;9.278;2023-04-29T08:35:11;98755.47;;;12.92;96.07
9969;BME280;5025;48.890;9.278;2023-04-29T08:37:37;98749.13;;;12.86;95.62
9969;BME280;5025;48.890;9.278;2023-04-29T08:40:02;98752.75;;;12.92;95.07
9969;BME280;5025;48.890;9.278;2023-04-29T08:42:35;98749.81;;;13.11;95.13
9969;BME280;5025;48.890;9.278;2023-04-29T08:45:02;98742.81;;;13.15;94.83
9969;BME280;5025;48.890;9.278;2023-04-29T08:47:32;98752.53;;;13.11;93.72
9969;BME280;5025;48.890;9.278;2023-04-29T08:50:01;98754.00;;;13.01;92.83
9969;BME280;5025;48.890;9.278;2023-04-29T08:52:28;98754.56;;;13.03;93.14
9969;BME280;5025;48.890;9.278;2023-04-29T08:54:53;98757.50;;;13.02;92.10
9969;BME280;5025;48.890;9.278;2023-04-29T08:57:19;98758.75;;;12.94;91.51
9969;BME280;5025;48.890;9.278;2023-04-29T08:59:45;98757.34;;;12.91;91.33
9969;BME280;5025;48.890;9.278;2023-04-29T09:02:12;98752.84;;;12.97;91.92
9969;BME280;5025;48.890;9.278;2023-04-29T09:04:52;98754.06;;;13.06;92.24
9969;BME280;5025;48.890;9.278;2023-04-29T09:07:20;98750.94;;;13.15;92.17
9969;BME280;5025;48.890;9.278;2023-04-29T09:09:47;98753.81;;;13.25;92.13
9969;BME280;5025;48.890;9.278;2023-04-29T09:12:13;98755.91;;;13.35;91.72
9969;BME280;5025;48.890;9.278;2023-04-29T09:14:38;98758.09;;;13.55;91.36
9969;BME280;5025;48.890;9.278;2023-04-29T09:17:03;98758.53;;;13.47;89.24
9969;BME280;5025;48.890;9.278;2023-04-29T09:19:30;98760.00;;;13.37;89.10
9969;BME280;5025;48.890;9.278;2023-04-29T09:21:56;98758.84;;;13.50;89.45
9969;BME280;5025;48.890;9.278;2023-04-29T09:24:26;98767.06;;;13.38;86.30
9969;BME280;5025;48.890;9.278;2023-04-29T09:26:52;98766.00;;;13.39;85.38
9969;BME280;5025;48.890;9.278;2023-04-29T09:29:17;98766.00;;;13.39;86.25
9969;BME280;5025;48.890;9.278;2023-04-29T09:31:44;98756.16;;;13.33;84.86
9969;BME280;5025;48.890;9.278;2023-04-29T09:34:10;98764.50;;;13.32;86.22
9969;BME280;5025;48.890;9.278;2023-04-29T09:36:43;98761.72;;;13.26;85.68
9969;BME280;5025;48.890;9.278;2023-04-29T09:39:22;98768.41;;;13.36;86.23
9969;BME280;5025;48.890;9.278;2023-04-29T09:44:19;98779.28;;;13.24;84.10
9969;BME280;5025;48.890;9.278;2023-04-29T09:49:34;98782.00;;;13.24;85.51
9969;BME280;5025;48.890;9.278;2023-04-29T09:52:12;98779.03;;;13.25;85.15
9969;BME280;5025;48.890;9.278;2023-04-29T09:54:39;98779.84;;;13.26;85.19
9969;BME280;5025;48.890;9.278;2023-04-29T09:57:06;98779.72;;;13.33;85.56
9969;BME280;5025;48.890;9.278;2023-04-29T09:59:35;98789.50;;;13.51;85.65
9969;BME280;5025;48.890;9.278;2023-04-29T10:02:06;98784.81;;;13.46;85.20
9969;BME280;5025;48.890;9.278;2023-04-29T10:04:34;98797.50;;;13.40;84.72
9969;BME280;5025;48.890;9.278;2023-04-29T10:07:03;98793.06;;;13.34;85.30
9969;BME280;5025;48.890;9.278;2023-04-29T10:09:28;98789.84;;;13.54;85.45
9969;BME280;5025;48.890;9.278;2023-04-29T10:11:54;98791.94;;;13.69;85.09
9969;BME280;5025;48.890;9.278;2023-04-29T10:14:21;98790.88;;;13.70;84.49
9969;BME280;5025;48.890;9.278;2023-04-29T10:16:53;98787.75;;;13.78;84.77
9969;BME280;5025;48.890;9.278;2023-04-29T10:19:33;98784.13;;;13.90;83.43
9969;BME280;5025;48.890;9.278;2023-04-29T10:22:06;98790.56;;;14.06;83.47
9969;BME280;5025;48.890;9.278;2023-04-29T10:24:35;98788.75;;;14.11;81.07
9969;BME280;5025;48.890;9.278;2023-04-29T10:27:01;98783.28;;;13.89;79.26
9969;BME280;5025;48.890;9.278;2023-04-29T10:29:28;98791.16;;;13.91;81.31
9969;BME280;5025;48.890;9.278;2023-04-29T10:31:56;98781.91;;;14.09;81.46
9969;BME280;5025;48.890;9.278;2023-04-29T10:34:23;98784.69;;;14.14;81.79
9969;BME280;5025;48.890;9.278;2023-04-29T10:36:49;98780.34;;;14.13;79.93
9969;BME280;5025;48.890;9.278;2023-04-29T10:39:23;98775.28;;;14.22;79.94
9969;BME280;5025;48.890;9.278;2023-04-29T10:41:52;98778.56;;;14.46;79.39
9969;BME280;5025;48.890;9.278;2023-04-29T10:44:18;98776.41;;;14.48;78.39
9969;BME280;5025;48.890;9.278;2023-04-29T10:46:43;98766.94;;;14.50;77.32
9969;BME280;5025;48.890;9.278;2023-04-29T10:49:09;98762.00;;;14.47;77.79
9969;BME280;5025;48.890;9.278;2023-04-29T10:54:15;98761.72;;;14.71;77.38
9969;BME280;5025;48.890;9.278;2023-04-29T10:56:42;98772.06;;;14.69;76.51
9969;BME280;5025;48.890;9.278;2023-04-29T10:59:12;98764.25;;;14.56;76.98
9969;BME280;5025;48.890;9.278;2023-04-29T11:01:49;98766.09;;;14.50;78.02
9969;BME280;5025;48.890;9.278;2023-04-29T11:04:16;98766.53;;;14.64;78.28
9969;BME280;5025;48.890;9.278;2023-04-29T11:06:53;98773.28;;;14.83;77.35
9969;BME280;5025;48.890;9.278;2023-04-29T11:09:26;98775.69;;;14.80;75.29
9969;BME280;5025;48.890;9.278;2023-04-29T11:16:52;98769.41;;;15.06;77.54
9969;BME280;5025;48.890;9.278;2023-04-29T11:19:18;98760.06;;;15.24;76.76
9969;BME280;5025;48.890;9.278;2023-04-29T11:21:45;98763.66;;;15.35;76.60
9969;BME280;5025;48.890;9.278;2023-04-29T11:24:11;98763.72;;;15.46;75.89
9969;BME280;5025;48.890;9.278;2023-04-29T11:26:39;98757.59;;;15.60;75.22
9969;BME280;5025;48.890;9.278;2023-04-29T11:29:06;98763.97;;;15.82;75.01
9969;BME280;5025;48.890;9.278;2023-04-29T11:31:34;98756.72;;;15.98;74.13
9969;BME280;5025;48.890;9.278;2023-04-29T11:34:00;98754.41;;;16.27;73.57
9969;BME280;5025;48.890;9.278;2023-04-29T11:36:25;98755.00;;;16.44;73.17
9969;BME280;5025;48.890;9.278;2023-04-29T11:38:53;98740.88;;;16.58;72.54
9969;BME280;5025;48.890;9.278;2023-04-29T11:41:20;98747.72;;;16.76;72.14
9969;BME280;5025;48.890;9.278;2023-04-29T11:43:46;98748.25;;;16.73;69.09
9969;BME280;5025;48.890;9.278;2023-04-29T11:46:13;98750.72;;;16.69;68.23
9969;BME280;5025;48.890;9.278;2023-04-29T11:48:46;98743.38;;;16.75;68.26
9969;BME280;5025;48.890;9.278;2023-04-29T11:51:13;98761.63;;;16.69;67.80
9969;BME280;5025;48.890;9.278;2023-04-29T11:53:38;98756.16;;;16.74;67.09
9969;BME280;5025;48.890;9.278;2023-04-29T11:56:04;98760.59;;;16.91;67.32
9969;BME280;5025;48.890;9.278;2023-04-29T11:58:29;98755.97;;;16.96;65.34
9969;BME280;5025;48.890;9.278;2023-04-29T12:00:57;98760.59;;;16.96;65.63
9969;BME280;5025;48.890;9.278;2023-04-29T12:03:22;98764.16;;;17.01;65.60
9969;BME280;5025;48.890;9.278;2023-04-29T12:05:54;98761.41;;;17.07;65.72
9969;BME280;5025;48.890;9.278;2023-04-29T12:08:21;98767.41;;;16.88;63.41
9969;BME280;5025;48.890;9.278;2023-04-29T12:10:47;98767.06;;;16.69;63.99
9969;BME280;5025;48.890;9.278;2023-04-29T12:13:14;98770.03;;;16.57;63.42
9969;BME280;5025;48.890;9.278;2023-04-29T12:15:40;98779.28;;;16.46;63.95
9969;BME280;5025;48.890;9.278;2023-04-29T12:18:06;98776.50;;;16.36;63.58
9969;BME280;5025;48.890;9.278;2023-04-29T12:20:32;98784.59;;;16.10;65.25
9969;BME280;5025;48.890;9.278;2023-04-29T12:23:13;98781.06;;;16.15;65.34
9969;BME280;5025;48.890;9.278;2023-04-29T12:25:39;98782.41;;;16.17;65.36
9969;BME280;5025;48.890;9.278;2023-04-29T12:28:11;98778.34;;;16.15;65.53
9969;BME280;5025;48.890;9.278;2023-04-29T12:30:36;98784.06;;;16.13;65.06
9969;BME280;5025;48.890;9.278;2023-04-29T12:33:01;98788.44;;;16.24;65.25
9969;BME280;5025;48.890;9.278;2023-04-29T12:35:27;98779.00;;;16.42;64.94
9969;BME280;5025;48.890;9.278;2023-04-29T12:37:52;98782.81;;;16.46;64.38
9969;BME280;5025;48.890;9.278;2023-04-29T12:40:17;98791.25;;;16.40;65.08
9969;BME280;5025;48.890;9.278;2023-04-29T12:42:44;98781.34;;;16.23;64.66
9969;BME280;5025;48.890;9.278;2023-04-29T12:45:26;98779.22;;;16.36;64.93
9969;BME280;5025;48.890;9.278;2023-04-29T12:47:52;98781.41;;;16.34;65.14
9969;BME280;5025;48.890;9.278;2023-04-29T12:50:19;98790.97;;;16.46;64.99
9969;BME280;5025;48.890;9.278;2023-04-29T12:52:45;98788.56;;;16.55;64.55
9969;BME280;5025;48.890;9.278;2023-04-29T12:55:10;98783.66;;;16.52;64.15
9969;BME280;5025;48.890;9.278;2023-04-29T12:57:36;98787.63;;;16.24;63.66
9969;BME280;5025;48.890;9.278;2023-04-29T13:00:04;98789.44;;;16.03;64.18
9969;BME280;5025;48.890;9.278;2023-04-29T13:02:29;98789.16;;;15.99;63.62
9969;BME280;5025;48.890;9.278;2023-04-29T13:04:55;98786.97;;;15.96;63.88
9969;BME280;5025;48.890;9.278;2023-04-29T13:07:20;98788.00;;;15.90;63.95
9969;BME280;5025;48.890;9.278;2023-04-29T13:09:45;98791.88;;;15.99;64.38
9969;BME280;5025;48.890;9.278;2023-04-29T13:12:10;98791.66;;;16.11;64.30
9969;BME280;5025;48.890;9.278;2023-04-29T13:14:36;98788.97;;;16.16;64.43
9969;BME280;5025;48.890;9.278;2023-04-29T13:17:01;98783.25;;;16.18;64.29
9969;BME280;5025;48.890;9.278;2023-04-29T13:19:27;98787.25;;;16.05;63.77
9969;BME280;5025;48.890;9.278;2023-04-29T13:21:53;98786.38;;;15.89;63.38
9969;BME280;5025;48.890;9.278;2023-04-29T13:24:18;98798.94;;;16.00;63.80
9969;BME280;5025;48.890;9.278;2023-04-29T13:26:44;98795.47;;;16.10;63.82
9969;BME280;5025;48.890;9.278;2023-04-29T13:29:11;98801.38;;;15.91;64.01
9969;BME280;5025;48.890;9.278;2023-04-29T13:31:36;98805.66;;;15.82;64.63